Punta Santiago, PR (00741)

10:05 AM AST on November 26, 2014 (GMT -0400)
Aquabella | Change Station
CLOSE
Current Station
Personal Weather Station
Location: Palmas Del Mar, HUMACAO
Elevation: 33 ft
Nearby Weather Stations

Elev 33 ft 18.09 °N, 65.80 °W | Updated 1 second ago

Partly Cloudy
Partly Cloudy
83.7 °F
Feels Like 91 °F
N
0.0
Wind Variable Wind from WNW
Gusts 7.0 mph

Today
High -- | Low -- °F
--% Chance of Precip.
Yesterday
High -- | Low -- °F
Precip. -- in
6:35 AM 5:45 PM
Waxing Crescent, 20% visible
Pressure 30.08 in
Visibility 10.0 miles
Clouds Few 2900 ft
Heat Index 91 °F
Dew Point 74 °F
Humidity 73%
Rainfall 0.40 in
Snow Depth Not available.
UV 4 out of 12
Pollen Not available.
Air Quality Not available.
Flu Activity Not available.
METAR TJNR 261353Z AUTO 09009KT 10SM FEW029 29/23 A3008 RMK AO2 SLP186 T02890228 $

More Conditions Fewer Conditions

Pressure 30.08 in
Visibility 10.0 miles
Clouds Few 2900 ft
Heat Index 91 °F
Dew Point 74 °F
Humidity 73%
Rainfall 0.40 in
Snow Depth Not available.
UV 4 out of 12
Pollen Not available.
Air Quality Not available.
Flu Activity Not available.
METAR TJNR 261353Z AUTO 09009KT 10SM FEW029 29/23 A3008 RMK AO2 SLP186 T02890228 $

More Conditions Fewer Conditions

10-Day Weather Forecast

Almanac

Astronomy

Nov. 26, 2014 Rise Set
Actual Time
Civil Twilight
Nautical Twilight
Astronomical Twilight
Moon
Length of Visible Light
Length of Day
Tomorrow will be .
, % of the Moon is Illuminated

Today's Extremes

State Highs State Lows

Community

WunderPhotos

Upload Photos

1,773,745 photos uploaded!

WunderBlogs® & News

Nearby

Air Quality

  Air Quality AQ Index Pollutant
Not available.

Snow Depth

Station Depth Elevation

Earthquake Activity

City Distance Mag. Time & Date
Minimum magnitude displayed is 2.5.

Coastal Water Temperatures

Place Temperature

Nearby Weather Stations